Terminal Aerodrome Forecast
Issued by NWS

Home | Current Version | Previous Version | Graphics & Text | Print | Product List | Glossary On
Versions: 1 2 3 4 5 6 7 8 9 10 11 12 13
000
FTUS43 KGRB 161733
TAFATW
TAF
KATW 161733Z 1618/1718 13005KT P6SM BKN120
     FM170000 13004KT P6SM BKN120
     FM170600 13004KT 6SM BR BKN120
     FM171500 17005KT P6SM SCT120=

USA.gov is the U.S. government's official web portal to all federal, state and local government web resources and services.